createdAt,value
2022-10-10T00:00:55.537Z,100759.16
2022-10-10T00:03:23.403Z,100752.44
2022-10-10T00:05:52.449Z,100751.06
2022-10-10T00:08:20.141Z,100754.53
2022-10-10T00:10:48.248Z,100755.50
2022-10-10T00:13:16.725Z,100754.09
2022-10-10T00:15:48.575Z,100727.28
2022-10-10T00:18:17.052Z,100728.13
2022-10-10T00:20:44.788Z,100752.66
2022-10-10T00:23:13.848Z,100747.38
2022-10-10T00:25:41.594Z,100756.28
2022-10-10T00:28:09.300Z,100754.22
2022-10-10T00:30:37.087Z,100752.41
2022-10-10T00:33:04.891Z,100755.19
2022-10-10T00:35:32.740Z,100761.44
2022-10-10T00:38:00.475Z,100760.16
2022-10-10T00:40:30.352Z,100759.31
2022-10-10T00:42:58.135Z,100754.16
2022-10-10T00:45:31.460Z,100723.13
2022-10-10T00:48:03.948Z,100753.00
2022-10-10T00:50:34.384Z,100752.28
2022-10-10T00:53:05.186Z,100746.31
2022-10-10T00:55:34.747Z,100751.44
2022-10-10T00:58:02.865Z,100746.03
2022-10-10T01:00:32.247Z,100747.00
2022-10-10T01:03:00.036Z,100742.56
2022-10-10T01:05:27.862Z,100734.03
2022-10-10T01:07:56.056Z,100732.34
2022-10-10T01:10:24.786Z,100730.81
2022-10-10T01:13:11.843Z,100738.03
2022-10-10T01:15:49.519Z,100688.06
2022-10-10T01:18:26.141Z,100721.84
2022-10-10T01:21:24.185Z,100736.94
2022-10-10T01:24:15.439Z,100731.66
2022-10-10T01:27:14.314Z,100725.66
2022-10-10T01:29:46.598Z,100729.25
2022-10-10T01:32:17.741Z,100722.16
2022-10-10T01:34:57.136Z,100723.25
2022-10-10T01:37:35.706Z,100722.41
2022-10-10T01:40:09.741Z,100720.03
2022-10-10T01:42:42.820Z,100717.69
2022-10-10T01:45:12.073Z,100710.13
2022-10-10T01:47:40.068Z,100709.88
2022-10-10T01:50:13.746Z,100705.56
2022-10-10T01:52:53.171Z,100706.13
2022-10-10T01:55:35.596Z,100696.91
2022-10-10T01:58:19.684Z,100704.59
2022-10-10T02:00:54.174Z,100706.53
2022-10-10T02:03:28.577Z,100705.69
2022-10-10T02:06:01.031Z,100700.53
2022-10-10T02:08:34.695Z,100703.16
2022-10-10T02:11:07.006Z,100701.88
2022-10-10T02:13:40.384Z,100700.91
2022-10-10T02:16:15.544Z,100690.34
2022-10-10T02:18:45.966Z,100691.44
2022-10-10T02:21:15.813Z,100694.19
2022-10-10T02:23:46.876Z,100691.72
2022-10-10T02:26:17.149Z,100688.06
2022-10-10T02:28:51.300Z,100691.72
2022-10-10T02:31:27.374Z,100681.16
2022-10-10T02:34:00.411Z,100680.44
2022-10-10T02:36:30.404Z,100680.56
2022-10-10T02:39:00.330Z,100682.78
2022-10-10T02:41:30.374Z,100676.81
2022-10-10T02:43:59.280Z,100677.50
2022-10-10T02:46:28.510Z,100674.19
2022-10-10T02:48:56.266Z,100674.44
2022-10-10T02:51:26.549Z,100675.28
2022-10-10T02:53:57.395Z,100668.19
2022-10-10T02:56:25.115Z,100662.78
2022-10-10T02:58:52.820Z,100666.25
2022-10-10T03:01:20.685Z,100665.56
2022-10-10T03:03:49.784Z,100664.84
2022-10-10T03:06:17.559Z,100662.91
2022-10-10T03:08:45.283Z,100646.84
2022-10-10T03:11:13.056Z,100651.63
2022-10-10T03:13:40.795Z,100655.25
2022-10-10T03:16:08.470Z,100657.16
2022-10-10T03:18:36.122Z,100649.97
2022-10-10T03:21:05.766Z,100643.13
2022-10-10T03:23:34.409Z,100647.06
2022-10-10T03:26:02.604Z,100657.38
2022-10-10T03:28:30.333Z,100656.38
2022-10-10T03:30:58.071Z,100662.78
2022-10-10T03:33:25.772Z,100659.03
2022-10-10T03:35:53.465Z,100652.94
2022-10-10T03:38:22.515Z,100654.31
2022-10-10T03:40:50.219Z,100657.81
2022-10-10T03:43:18.004Z,100653.06
2022-10-10T03:45:47.629Z,100659.72
2022-10-10T03:48:15.805Z,100643.84
2022-10-10T03:50:43.527Z,100658.22
2022-10-10T03:53:11.394Z,100655.56
2022-10-10T03:55:42.194Z,100660.00
2022-10-10T03:58:10.676Z,100658.34
2022-10-10T04:00:39.246Z,100656.06
2022-10-10T04:03:08.161Z,100650.91
2022-10-10T04:05:36.052Z,100650.22
2022-10-10T04:08:04.332Z,100634.91
2022-10-10T04:10:32.378Z,100648.09
2022-10-10T04:13:01.476Z,100643.50
2022-10-10T04:15:30.532Z,100644.75
2022-10-10T04:17:58.289Z,100647.09
2022-10-10T04:20:26.404Z,100636.28
2022-10-10T04:22:54.365Z,100636.53
2022-10-10T04:25:22.143Z,100639.06
2022-10-10T04:27:49.973Z,100638.50
2022-10-10T04:30:19.757Z,100640.19
2022-10-10T04:32:47.487Z,100646.84
2022-10-10T04:35:15.270Z,100641.81
2022-10-10T04:37:42.995Z,100635.88
2022-10-10T04:40:11.734Z,100635.16
2022-10-10T04:42:39.580Z,100626.81
2022-10-10T04:45:08.374Z,100625.72
2022-10-10T04:47:37.506Z,100629.34
2022-10-10T04:50:05.935Z,100632.38
2022-10-10T04:52:33.623Z,100639.59
2022-10-10T04:55:01.456Z,100620.06
2022-10-10T04:57:29.140Z,100629.88
2022-10-10T04:59:56.854Z,100630.13
2022-10-10T05:02:24.599Z,100611.97
2022-10-10T05:04:53.733Z,100638.16
2022-10-10T05:07:21.549Z,100635.53
2022-10-10T05:09:49.288Z,100585.19
2022-10-10T05:12:17.287Z,100647.66
2022-10-10T05:14:48.149Z,100628.25
2022-10-10T05:17:16.657Z,100639.84
2022-10-10T05:19:44.466Z,100625.03
2022-10-10T05:22:19.210Z,100609.41
2022-10-10T05:24:47.102Z,100631.41
2022-10-10T05:27:14.838Z,100639.06
2022-10-10T05:29:42.605Z,100628.38
2022-10-10T05:32:10.813Z,100574.56
2022-10-10T05:34:38.800Z,100623.66
2022-10-10T05:37:06.582Z,100638.75
2022-10-10T05:39:36.167Z,100638.75
2022-10-10T05:42:04.911Z,100642.59
2022-10-10T05:44:33.738Z,100642.22
2022-10-10T05:47:01.721Z,100628.19
2022-10-10T05:49:29.499Z,100632.25
2022-10-10T05:51:57.359Z,100636.53
2022-10-10T05:54:25.180Z,100633.22
2022-10-10T05:56:54.251Z,100635.03
2022-10-10T05:59:21.956Z,100619.75
2022-10-10T06:01:49.682Z,100637.66
2022-10-10T06:04:17.592Z,100627.03
2022-10-10T06:06:45.585Z,100643.78
2022-10-10T06:09:13.554Z,100633.72
2022-10-10T06:11:41.308Z,100637.06
2022-10-10T06:14:10.773Z,100639.72
2022-10-10T06:16:39.611Z,100637.06
2022-10-10T06:19:11.342Z,100637.78
2022-10-10T06:21:41.784Z,100639.19
2022-10-10T06:24:10.709Z,100619.31
2022-10-10T06:26:38.418Z,100641.06
2022-10-10T06:29:07.288Z,100643.50
2022-10-10T06:31:39.364Z,100648.28
2022-10-10T06:34:07.404Z,100619.81
2022-10-10T06:36:35.762Z,100647.31
2022-10-10T06:39:03.604Z,100649.56
2022-10-10T06:41:31.384Z,100654.97
2022-10-10T06:43:59.127Z,100653.06
2022-10-10T06:46:26.875Z,100651.38
2022-10-10T06:48:55.995Z,100652.09
2022-10-10T06:51:24.380Z,100650.00
2022-10-10T06:53:52.044Z,100639.13
2022-10-10T06:56:26.312Z,100656.13
2022-10-10T06:58:55.308Z,100661.47
2022-10-10T07:01:24.936Z,100669.97
2022-10-10T07:03:52.791Z,100669.84
2022-10-10T07:06:22.382Z,100652.31
2022-10-10T07:08:50.060Z,100668.69
2022-10-10T07:11:17.777Z,100667.47
2022-10-10T07:13:45.596Z,100642.56
2022-10-10T07:16:13.303Z,100681.84
2022-10-10T07:18:41.038Z,100666.69
2022-10-10T07:21:08.774Z,100679.22
2022-10-10T07:23:39.288Z,100676.91
2022-10-10T07:26:09.012Z,100682.06
2022-10-10T07:28:36.812Z,100670.34
2022-10-10T07:31:06.647Z,100683.44
2022-10-10T07:33:35.891Z,100684.72
2022-10-10T07:36:03.827Z,100683.50
2022-10-10T07:38:31.568Z,100683.91
2022-10-10T07:41:00.708Z,100678.09
2022-10-10T07:43:28.434Z,100691.59
2022-10-10T07:45:56.519Z,100689.66
2022-10-10T07:48:24.273Z,100694.81
2022-10-10T07:50:51.979Z,100694.69
2022-10-10T07:53:20.235Z,100684.69
2022-10-10T07:55:48.322Z,100686.34
2022-10-10T07:58:17.428Z,100667.66
2022-10-10T08:00:45.174Z,100689.97
2022-10-10T08:03:14.341Z,100684.56
2022-10-10T08:05:42.804Z,100684.28
2022-10-10T08:08:11.543Z,100693.38
2022-10-10T08:10:39.387Z,100664.63
2022-10-10T08:13:07.617Z,100692.53
2022-10-10T08:15:36.727Z,100698.41
2022-10-10T08:18:04.446Z,100692.81
2022-10-10T08:20:32.148Z,100693.38
2022-10-10T08:23:00.003Z,100685.44
2022-10-10T08:25:27.746Z,100683.22
2022-10-10T08:27:55.436Z,100681.81
2022-10-10T08:30:23.151Z,100681.53
2022-10-10T08:32:52.598Z,100683.34
2022-10-10T08:35:20.982Z,100685.72
2022-10-10T08:37:48.686Z,100687.28
2022-10-10T08:40:20.383Z,100650.19
2022-10-10T08:42:53.007Z,100677.50
2022-10-10T08:45:25.295Z,100683.06
2022-10-10T08:47:58.583Z,100691.59
2022-10-10T08:50:30.279Z,100693.13
2022-10-10T08:53:02.862Z,100687.13
2022-10-10T08:55:33.636Z,100687.41
2022-10-10T08:58:06.870Z,100693.69
2022-10-10T09:00:39.780Z,100700.25
2022-10-10T09:03:20.415Z,100701.63
2022-10-10T09:06:06.444Z,100696.91
2022-10-10T09:08:48.329Z,100701.19
2022-10-10T09:11:28.383Z,100698.56
2022-10-10T09:14:09.060Z,100712.88
2022-10-10T09:16:44.289Z,100700.75
2022-10-10T09:19:26.655Z,100711.34
2022-10-10T09:21:58.382Z,100710.94
2022-10-10T09:24:32.307Z,100709.50
2022-10-10T09:27:04.932Z,100696.00
2022-10-10T09:29:39.740Z,100713.50
2022-10-10T09:32:12.950Z,100712.75
2022-10-10T09:34:46.619Z,100713.38
2022-10-10T09:37:29.572Z,100712.41
2022-10-10T09:40:18.342Z,100709.28
2022-10-10T09:42:46.417Z,100713.81
2022-10-10T09:45:19.342Z,100715.63
2022-10-10T09:47:49.763Z,100690.72
2022-10-10T09:50:18.907Z,100710.44
2022-10-10T09:52:47.990Z,100715.28
2022-10-10T09:55:25.388Z,100712.22
2022-10-10T09:57:54.376Z,100716.84
2022-10-10T10:00:34.655Z,100711.28
2022-10-10T10:03:14.490Z,100718.31
2022-10-10T10:05:47.668Z,100702.84
2022-10-10T10:08:25.788Z,100716.47
2022-10-10T10:10:57.976Z,100702.66
2022-10-10T10:13:28.919Z,100722.66
2022-10-10T10:16:03.900Z,100720.88
2022-10-10T10:18:41.636Z,100726.19
2022-10-10T10:21:18.066Z,100711.53
2022-10-10T10:23:52.456Z,100712.53
2022-10-10T10:26:23.099Z,100719.69
2022-10-10T10:28:52.694Z,100719.38
2022-10-10T10:31:42.569Z,100715.88
2022-10-10T10:34:34.973Z,100714.22
2022-10-10T10:37:15.246Z,100730.19
2022-10-10T10:39:52.851Z,100725.88
2022-10-10T10:42:35.880Z,100726.38
2022-10-10T10:45:10.568Z,100733.19
2022-10-10T10:47:48.084Z,100734.09
2022-10-10T10:50:34.312Z,100731.28
2022-10-10T10:53:09.212Z,100731.16
2022-10-10T10:55:42.880Z,100735.97
2022-10-10T11:01:56.353Z,100738.69
2022-10-10T11:05:23.379Z,100737.00
2022-10-10T11:07:37.421Z,100735.72
2022-10-10T11:10:17.802Z,100735.72
2022-10-10T11:12:58.503Z,100733.94
2022-10-10T11:15:54.107Z,100727.00
2022-10-10T11:18:25.583Z,100729.50
2022-10-10T11:21:00.031Z,100733.22
2022-10-10T11:23:34.435Z,100718.91
2022-10-10T11:26:07.574Z,100725.09
2022-10-10T11:28:41.040Z,100738.91
2022-10-10T11:31:14.031Z,100730.25
2022-10-10T11:33:45.212Z,100731.00
2022-10-10T11:36:17.504Z,100740.91
2022-10-10T11:38:57.214Z,100724.81
2022-10-10T11:41:35.027Z,100728.16
2022-10-10T11:44:08.832Z,100721.81
2022-10-10T11:46:42.900Z,100726.84
2022-10-10T11:49:22.678Z,100723.84
2022-10-10T11:52:32.476Z,100731.03
2022-10-10T11:55:07.032Z,100725.69
2022-10-10T11:57:41.504Z,100719.22
2022-10-10T12:00:13.931Z,100725.84
2022-10-10T12:02:43.450Z,100718.19
2022-10-10T12:05:22.111Z,100701.88
2022-10-10T12:08:04.488Z,100727.22
2022-10-10T12:10:36.871Z,100726.88
2022-10-10T12:13:20.967Z,100724.56
2022-10-10T12:15:52.346Z,100717.56
2022-10-10T12:18:30.533Z,100730.25
2022-10-10T12:21:07.498Z,100717.91
2022-10-10T12:23:35.732Z,100721.88
2022-10-10T12:26:04.295Z,100717.69
2022-10-10T12:28:38.430Z,100716.84
2022-10-10T12:31:29.574Z,100718.22
2022-10-10T12:34:14.091Z,100713.53
2022-10-10T12:36:56.495Z,100704.91
2022-10-10T12:39:37.466Z,100710.53
2022-10-10T12:42:25.548Z,100709.19
2022-10-10T12:44:54.766Z,100714.84
2022-10-10T12:47:52.578Z,100696.53
2022-10-10T12:50:24.140Z,100709.84
2022-10-10T12:52:56.150Z,100709.16
2022-10-10T12:55:26.025Z,100717.50
2022-10-10T12:57:55.883Z,100710.50
2022-10-10T13:00:27.235Z,100713.47
2022-10-10T13:02:57.297Z,100720.13
2022-10-10T13:05:29.015Z,100721.81
2022-10-10T13:08:02.003Z,100719.47
2022-10-10T13:10:30.938Z,100703.78
2022-10-10T13:13:03.852Z,100712.78
2022-10-10T13:15:34.916Z,100710.78
2022-10-10T13:18:03.038Z,100715.47
2022-10-10T13:20:36.098Z,100704.06
2022-10-10T13:23:05.515Z,100701.72
2022-10-10T13:25:34.681Z,100700.06
2022-10-10T13:28:03.127Z,100701.56
2022-10-10T13:30:30.979Z,100708.91
2022-10-10T13:33:00.098Z,100706.06
2022-10-10T13:35:29.111Z,100696.09
2022-10-10T13:38:00.110Z,100694.44
2022-10-10T13:40:28.990Z,100712.78
2022-10-10T13:42:58.575Z,100719.13
2022-10-10T13:45:37.108Z,100708.78
2022-10-10T13:48:22.752Z,100711.75
2022-10-10T13:51:10.410Z,100721.25
2022-10-10T13:53:51.271Z,100721.41
2022-10-10T13:56:23.980Z,100719.75
2022-10-10T13:58:54.653Z,100716.38
2022-10-10T14:01:34.633Z,100719.75
2022-10-10T14:04:08.915Z,100729.78
2022-10-10T14:06:37.039Z,100719.59
2022-10-10T14:09:11.108Z,100731.59
2022-10-10T14:11:44.173Z,100724.94
2022-10-10T14:14:21.079Z,100724.09
2022-10-10T14:16:58.764Z,100726.09
2022-10-10T14:19:28.140Z,100713.25
2022-10-10T14:21:56.087Z,100728.22
2022-10-10T14:24:23.863Z,100730.88
2022-10-10T14:26:51.790Z,100737.06
2022-10-10T14:29:20.527Z,100743.06
2022-10-10T14:31:48.758Z,100741.75
2022-10-10T14:34:16.938Z,100728.09
2022-10-10T14:36:49.310Z,100745.63
2022-10-10T14:39:19.887Z,100738.78
2022-10-10T14:41:48.204Z,100745.84
2022-10-10T14:44:16.332Z,100754.19
2022-10-10T14:46:44.187Z,100748.72
2022-10-10T14:49:19.987Z,100754.88
2022-10-10T14:51:49.214Z,100763.22
2022-10-10T14:54:20.047Z,100764.56
2022-10-10T14:57:07.011Z,100769.56
2022-10-10T14:59:50.188Z,100757.88
2022-10-10T15:02:20.246Z,100772.22
2022-10-10T15:04:48.209Z,100778.56
2022-10-10T15:07:19.086Z,100779.56
2022-10-10T15:10:30.904Z,100774.59
2022-10-10T15:12:39.365Z,100781.41
2022-10-10T15:15:08.377Z,100784.59
2022-10-10T15:17:36.240Z,100790.59
2022-10-10T15:20:07.373Z,100799.59
2022-10-10T15:22:38.123Z,100808.63
2022-10-10T15:25:07.053Z,100813.41
2022-10-10T15:27:34.998Z,100813.91
2022-10-10T15:30:02.899Z,100811.22
2022-10-10T15:32:30.722Z,100820.75
2022-10-10T15:34:58.749Z,100830.56
2022-10-10T15:37:30.102Z,100832.53
2022-10-10T15:39:59.326Z,100834.56
2022-10-10T15:42:27.027Z,100846.41
2022-10-10T15:44:54.876Z,100847.56
2022-10-10T15:47:22.695Z,100843.22
2022-10-10T15:49:50.871Z,100856.03
2022-10-10T15:52:22.880Z,100865.34
2022-10-10T15:54:51.313Z,100872.03
2022-10-10T15:57:23.730Z,100863.81
2022-10-10T15:59:51.467Z,100878.97
2022-10-10T16:02:19.166Z,100873.31
2022-10-10T16:04:47.324Z,100876.81
2022-10-10T16:07:34.614Z,100877.13
2022-10-10T16:10:03.190Z,100886.44
2022-10-10T16:12:35.357Z,100887.59
2022-10-10T16:15:06.941Z,100895.91
2022-10-10T16:17:35.045Z,100898.72
2022-10-10T16:20:03.184Z,100906.72
2022-10-10T16:22:31.358Z,100916.53
2022-10-10T16:27:48.209Z,100925.03
2022-10-10T16:30:16.508Z,100937.69
2022-10-10T16:32:44.357Z,100932.97
2022-10-10T16:35:12.632Z,100946.81
2022-10-10T16:37:40.525Z,100939.13
2022-10-10T16:40:09.540Z,100946.97
2022-10-10T16:42:37.618Z,100949.25
2022-10-10T16:45:07.877Z,100957.09
2022-10-10T16:47:36.087Z,100960.75
2022-10-10T16:50:08.297Z,100969.25
2022-10-10T16:52:38.387Z,100957.69
2022-10-10T16:55:07.556Z,100972.53
2022-10-10T16:57:35.508Z,100972.66
2022-10-10T17:00:14.355Z,100973.50
2022-10-10T17:02:42.555Z,100979.97
2022-10-10T17:05:10.827Z,100979.75
2022-10-10T17:07:39.180Z,100983.97
2022-10-10T17:10:07.952Z,100993.75
2022-10-10T17:12:35.671Z,100992.38
2022-10-10T17:15:05.605Z,100995.19
2022-10-10T17:17:37.766Z,101007.69
2022-10-10T17:20:07.420Z,101001.66
2022-10-10T17:22:35.590Z,101005.63
2022-10-10T17:25:03.341Z,101009.97
2022-10-10T17:27:31.100Z,101024.09
2022-10-10T17:30:00.361Z,101029.59
2022-10-10T17:32:28.034Z,101035.25
2022-10-10T17:34:58.403Z,101046.59
2022-10-10T17:37:26.408Z,101043.94
2022-10-10T17:39:54.179Z,101051.06
2022-10-10T17:42:21.985Z,101064.53
2022-10-10T17:44:53.948Z,101059.22
2022-10-10T17:47:23.756Z,101071.84
2022-10-10T17:49:51.890Z,101072.69
2022-10-10T17:52:21.587Z,101073.28
2022-10-10T17:54:49.996Z,101083.78
2022-10-10T17:57:18.252Z,101091.91
2022-10-10T17:59:46.335Z,101101.03
2022-10-10T18:02:16.353Z,101107.66
2022-10-10T18:04:44.536Z,101117.63
2022-10-10T18:07:12.761Z,101116.94
2022-10-10T18:09:41.976Z,101128.56
2022-10-10T18:12:09.678Z,101131.53
2022-10-10T18:14:37.801Z,101140.50
2022-10-10T18:17:05.739Z,101137.13
2022-10-10T18:19:33.923Z,101143.78
2022-10-10T18:22:01.704Z,101146.03
2022-10-10T18:24:29.789Z,101150.38
2022-10-10T18:26:58.868Z,101157.22
2022-10-10T18:29:26.741Z,101154.16
2022-10-10T18:31:56.324Z,101170.97
2022-10-10T18:34:24.313Z,101171.25
2022-10-10T18:37:01.193Z,101181.34
2022-10-10T18:39:33.267Z,101177.47
2022-10-10T18:42:03.094Z,101178.34
2022-10-10T18:44:31.084Z,101187.00
2022-10-10T18:46:59.090Z,101189.97
2022-10-10T18:49:27.316Z,101190.69
2022-10-10T18:51:55.309Z,101197.28
2022-10-10T18:54:23.373Z,101200.41
2022-10-10T18:56:51.101Z,101210.03
2022-10-10T18:59:22.107Z,101211.19
2022-10-10T19:01:51.791Z,101211.31
2022-10-10T19:04:21.145Z,101223.25
2022-10-10T19:06:57.021Z,101214.13
2022-10-10T19:09:25.648Z,101226.44
2022-10-10T19:11:53.560Z,101223.22
2022-10-10T19:14:22.704Z,101239.16
2022-10-10T19:16:50.405Z,101243.09
2022-10-10T19:19:20.204Z,101254.00
2022-10-10T19:21:49.331Z,101250.09
2022-10-10T19:24:20.928Z,101257.94
2022-10-10T19:26:53.610Z,101247.31
2022-10-10T19:29:23.374Z,101258.47
2022-10-10T19:31:51.562Z,101270.78
2022-10-10T19:34:19.284Z,101273.03
2022-10-10T19:36:47.098Z,101288.69
2022-10-10T19:39:14.863Z,101283.25
2022-10-10T19:41:43.033Z,101286.75
2022-10-10T19:44:10.896Z,101299.91
2022-10-10T19:46:40.786Z,101294.00
2022-10-10T19:49:08.782Z,101306.91
2022-10-10T19:51:37.364Z,101305.91
2022-10-10T19:54:05.646Z,101317.53
2022-10-10T19:56:33.748Z,101321.44
2022-10-10T19:59:04.452Z,101317.34
2022-10-10T20:01:32.520Z,101328.69
2022-10-10T20:04:03.703Z,101331.22
2022-10-10T20:06:31.716Z,101334.28
2022-10-10T20:08:59.456Z,101340.44
2022-10-10T20:11:27.636Z,101346.72
2022-10-10T20:14:01.270Z,101346.88
2022-10-10T20:16:30.360Z,101348.84
2022-10-10T20:19:00.809Z,101364.50
2022-10-10T20:21:59.004Z,101362.38
2022-10-10T20:24:46.759Z,101374.41
2022-10-10T20:28:04.598Z,101372.16
2022-10-10T20:30:44.212Z,101367.13
2022-10-10T20:33:56.050Z,101378.72
2022-10-10T20:37:13.941Z,101394.78
2022-10-10T20:43:21.647Z,101396.97
2022-10-10T20:46:37.249Z,101403.50
2022-10-10T20:49:08.226Z,101415.22
2022-10-10T20:51:58.272Z,101418.44
2022-10-10T20:54:29.970Z,101414.22
2022-10-10T20:57:08.162Z,101424.13
2022-10-10T20:59:42.291Z,101424.63
2022-10-10T21:02:11.085Z,101421.56
2022-10-10T21:04:38.790Z,101431.59
2022-10-10T21:07:06.480Z,101425.78
2022-10-10T21:09:34.551Z,101434.28
2022-10-10T21:12:03.679Z,101446.00
2022-10-10T21:14:31.501Z,101446.50
2022-10-10T21:16:59.228Z,101448.00
2022-10-10T21:19:26.943Z,101450.16
2022-10-10T21:21:54.645Z,101459.47
2022-10-10T21:24:22.341Z,101460.59
2022-10-10T21:26:50.690Z,101460.25
2022-10-10T21:29:19.729Z,101469.28
2022-10-10T21:31:47.527Z,101470.78
2022-10-10T21:34:18.624Z,101465.72
2022-10-10T21:36:46.702Z,101466.81
2022-10-10T21:39:15.653Z,101474.03
2022-10-10T21:41:43.594Z,101478.75
2022-10-10T21:44:11.644Z,101470.34
2022-10-10T21:46:40.823Z,101471.44
2022-10-10T21:49:10.017Z,101470.81
2022-10-10T21:51:38.982Z,101479.75
2022-10-10T21:54:07.665Z,101483.59
2022-10-10T21:56:35.490Z,101482.19
2022-10-10T21:59:03.456Z,101483.28
2022-10-10T22:01:32.960Z,101485.81
2022-10-10T22:04:03.415Z,101482.44
2022-10-10T22:06:31.441Z,101481.09
2022-10-10T22:09:00.539Z,101487.25
2022-10-10T22:11:29.609Z,101493.75
2022-10-10T22:13:57.821Z,101484.25
2022-10-10T22:16:25.695Z,101484.50
2022-10-10T22:18:57.311Z,101487.25
2022-10-10T22:21:30.640Z,101487.50
2022-10-10T22:23:59.207Z,101492.47
2022-10-10T22:26:26.928Z,101497.59
2022-10-10T22:28:54.776Z,101502.44
2022-10-10T22:31:22.611Z,101497.38
2022-10-10T22:33:50.364Z,101507.25
2022-10-10T22:36:18.090Z,101504.59
2022-10-10T22:38:47.340Z,101507.38
2022-10-10T22:41:15.140Z,101510.97
2022-10-10T22:43:42.917Z,101516.28
2022-10-10T22:46:10.625Z,101510.38
2022-10-10T22:48:38.406Z,101521.44
2022-10-10T22:51:08.231Z,101519.00
2022-10-10T22:53:36.125Z,101522.84
2022-10-10T22:56:06.011Z,101521.41
2022-10-10T22:58:34.062Z,101522.84
2022-10-10T23:01:05.321Z,101528.38
2022-10-10T23:03:33.238Z,101528.00
2022-10-10T23:06:01.118Z,101534.38
2022-10-10T23:08:29.057Z,101540.84
2022-10-10T23:10:57.451Z,101535.09
2022-10-10T23:13:26.784Z,101542.03
2022-10-10T23:15:54.604Z,101549.28
2022-10-10T23:18:22.300Z,101543.97
2022-10-10T23:20:50.548Z,101542.28
2022-10-10T23:23:19.438Z,101551.19
2022-10-10T23:25:48.191Z,101542.75
2022-10-10T23:28:17.379Z,101547.53
2022-10-10T23:30:48.559Z,101555.72
2022-10-10T23:33:17.160Z,101554.03
2022-10-10T23:35:44.955Z,101554.03
2022-10-10T23:38:12.675Z,101555.09
2022-10-10T23:40:40.395Z,101557.00
2022-10-10T23:43:10.546Z,101551.09
2022-10-10T23:45:40.959Z,101557.47
2022-10-10T23:48:10.071Z,101558.56
2022-10-10T23:50:37.771Z,101554.53
2022-10-10T23:53:05.606Z,101556.69
2022-10-10T23:55:36.967Z,101561.63
2022-10-10T23:58:04.953Z,101571.47
